Data for 02/18/2009

Time Sea-Level Adjusted Pressure Absolute Pressure Temperature Relative Humidity Dew Point   
(mb) (inHg) (mb) (inHg) (C) (F) (%) (C) (F)
00:05 1013 29.91 842 24.86 0.9 33.6 64 -5.2 22.6
00:10 1013 29.91 842 24.86 1 33.7 63 -5.2 22.6
00:15 1013 29.91 842 24.86 0.9 33.7 64 -5 22.9
00:20 1013 29.91 842 24.86 0.8 33.5 65 -5.1 22.9
00:25 1013 29.91 842 24.86 0.8 33.5 64 -5.1 22.8
00:30 1013 29.91 842 24.86 0.8 33.5 64 -5.2 22.7
00:35 1013 29.91 842 24.86 0.9 33.6 63 -5.3 22.5
00:40 1013 29.91 842 24.86 1 33.8 62 -5.4 22.2
00:45 1013 29.91 842 24.86 1.1 34 64 -5 22.9
00:50 1013 29.91 842 24.86 1 33.8 65 -4.8 23.3
00:55 1013 29.91 842 24.86 0.7 33.3 65 -5.1 22.9
01:00 1013 29.91 842 24.86 0.8 33.4 65 -5.1 22.8
01:05 1013 29.91 842 24.86 0.8 33.4 64 -5.3 22.4
01:10 1013 29.91 843 24.89 0.9 33.5 65 -5.1 22.9
01:15 1013 29.91 843 24.89 0.9 33.6 64 -5.1 22.8
01:20 1013 29.91 843 24.89 0.8 33.5 64 -5.3 22.5
01:25 1013 29.91 843 24.89 0.8 33.5 63 -5.4 22.2
01:30 1013 29.91 843 24.89 0.9 33.5 63 -5.5 22.1
01:35 1013 29.91 843 24.89 0.9 33.6 63 -5.4 22.3
01:40 1014 29.94 843 24.89 0.9 33.6 64 -5.3 22.5
01:45 1014 29.94 843 24.89 0.8 33.4 63 -5.6 22
01:50 1014 29.94 843 24.89 0.8 33.4 63 -5.5 22.1
01:55 1014 29.94 843 24.89 0.8 33.4 63 -5.5 22
02:00 1014 29.94 843 24.89 0.8 33.4 62 -5.6 21.8
02:05 1014 29.94 843 24.89 0.8 33.4 61 -5.8 21.5
02:10 1014 29.94 843 24.89 0.8 33.5 62 -5.6 22
02:15 1014 29.94 843 24.89 0.8 33.4 62 -5.6 21.8
02:20 1014 29.94 843 24.89 0.7 33.3 62 -5.8 21.6
02:25 1014 29.94 843 24.89 0.8 33.4 62 -5.8 21.6
02:30 1014 29.94 843 24.89 0.9 33.5 61 -5.8 21.5
02:35 1014 29.94 843 24.89 1 33.9 60 -5.9 21.3
02:40 1014 29.94 843 24.89 1.1 34 61 -5.6 22
02:45 1014 29.94 843 24.89 1.1 33.9 61 -5.6 21.9
02:50 1014 29.94 843 24.89 1 33.9 62 -5.5 22.2
02:55 1014 29.94 843 24.89 1 33.7 62 -5.5 22.1
03:00 1014 29.94 843 24.89 0.9 33.7 63 -5.2 22.6
03:05 1014 29.94 843 24.89 0.8 33.5 63 -5.4 22.3
03:10 1014 29.94 843 24.89 0.6 33.1 64 -5.4 22.3
03:15 1014 29.94 843 24.89 0.3 32.5 65 -5.7 21.8
03:20 1014 29.94 843 24.89 0.2 32.3 65 -5.7 21.7
03:25 1014 29.94 843 24.89 0.2 32.4 65 -5.7 21.8
03:30 1014 29.94 843 24.89 0.3 32.6 64 -5.6 21.9
03:35 1014 29.94 844 24.92 0.5 33 63 -5.6 21.9
03:40 1014 29.94 844 24.92 0.7 33.2 63 -5.6 21.9
03:45 1014 29.94 844 24.92 0.8 33.4 63 -5.4 22.3
03:50 1015 29.97 844 24.92 0.7 33.2 64 -5.4 22.3
03:55 1015 29.97 844 24.92 0.6 33.1 64 -5.4 22.3
04:00 1015 29.97 844 24.92 0.6 33.1 64 -5.5 22.1
04:05 1015 29.97 844 24.92 0.6 33.1 64 -5.4 22.3
04:10 1015 29.97 844 24.92 0.6 33.1 64 -5.4 22.3
04:15 1015 29.97 844 24.92 0.6 33.1 64 -5.4 22.3
04:20 1015 29.97 844 24.92 0.5 32.9 65 -5.4 22.3
04:25 1015 29.97 844 24.92 0.5 32.9 66 -5.2 22.7
04:30 1015 29.97 844 24.92 0.5 33 65 -5.3 22.4
04:35 1015 29.97 844 24.92 0.6 33.1 65 -5.1 22.8
04:40 1015 29.97 844 24.92 0.7 33.2 65 -5.2 22.7
04:45 1015 29.97 844 24.92 0.7 33.3 65 -5.2 22.7
04:50 1015 29.97 844 24.92 0.8 33.5 64 -5.2 22.6
04:55 1015 29.97 844 24.92 0.9 33.6 65 -5 23
05:00 1015 29.97 844 24.92 0.8 33.5 64 -5.1 22.8
05:05 1015 29.97 844 24.92 0.8 33.5 64 -5.2 22.6
05:10 1015 29.97 844 24.92 0.9 33.5 64 -5.2 22.6
05:15 1015 29.97 844 24.92 0.9 33.6 64 -5.2 22.7
05:20 1015 29.97 844 24.92 0.9 33.6 64 -5.1 22.7
05:25 1015 29.97 845 24.95 0.8 33.5 65 -5 23
05:30 1015 29.97 845 24.95 0.9 33.6 64 -5.1 22.8
05:35 1015 29.97 845 24.95 1 33.7 64 -5.1 22.9
05:40 1015 29.97 845 24.95 0.9 33.6 64 -5.2 22.6
05:45 1015 29.97 845 24.95 1 33.7 64 -5.1 22.7
05:50 1015 29.97 845 24.95 0.9 33.6 64 -5.2 22.7
05:55 1016 30 845 24.95 0.9 33.7 63 -5.4 22.3
06:00 1016 30 845 24.95 1 33.7 62 -5.5 22.1
06:05 1016 30 845 24.95 1 33.8 63 -5.3 22.4
06:10 1016 30 845 24.95 0.8 33.5 70 -4.1 24.6
06:15 1016 30 845 24.95 0.4 32.7 72 -4 24.8
06:20 1016 30 845 24.95 0.3 32.5 70 -4.6 23.7
06:25 1016 30 845 24.95 0.3 32.6 70 -4.4 24
06:30 1016 30 845 24.95 0.4 32.7 69 -4.6 23.8
06:35 1016 30 845 24.95 0.4 32.7 69 -4.6 23.8
06:40 1016 30 845 24.95 0.4 32.7 69 -4.6 23.7
06:45 1016 30 845 24.95 0.4 32.8 68 -4.7 23.5
06:50 1016 30 845 24.95 0.4 32.7 68 -4.7 23.5
06:55 1016 30 845 24.95 0.3 32.6 69 -4.7 23.5
07:00 1016 30 845 24.95 0.3 32.6 69 -4.8 23.4
07:05 1016 30 845 24.95 0.3 32.6 68 -4.8 23.3
07:10 1016 30 845 24.95 0.3 32.5 69 -4.7 23.5
07:15 1016 30 845 24.95 0.1 32.3 70 -4.8 23.4
07:20 1016 30 846 24.98 0.1 32.2 70 -4.7 23.5
07:25 1016 30 846 24.98 0.2 32.3 71 -4.5 23.9
07:30 1016 30 846 24.98 0.2 32.3 70 -4.7 23.6
07:35 1016 30 846 24.98 0.2 32.4 70 -4.7 23.6
07:40 1016 30 846 24.98 0.2 32.4 69 -4.9 23.2
07:45 1016 30 846 24.98 0.2 32.4 68 -5 23.1
07:50 1017 30.03 846 24.98 0.4 32.6 67 -5.1 22.9
07:55 1017 30.03 846 24.98 0.4 32.7 65 -5.4 22.2
08:00 1017 30.03 846 24.98 0.4 32.8 65 -5.5 22.2
08:05 1017 30.03 846 24.98 0.5 32.8 65 -5.4 22.4
08:10 1017 30.03 846 24.98 0.5 32.9 64 -5.6 21.9
08:15 1017 30.03 846 24.98 0.5 33 65 -5.4 22.3
08:20 1017 30.03 846 24.98 0.6 33 64 -5.5 22
08:25 1017 30.03 846 24.98 0.6 33.1 64 -5.4 22.2
08:30 1017 30.03 846 24.98 0.7 33.3 62 -5.7 21.7
08:35 1017 30.03 846 24.98 0.8 33.5 62 -5.7 21.8
08:40 1017 30.03 846 24.98 0.9 33.6 62 -5.6 21.9
08:45 1017 30.03 846 24.98 0.9 33.7 62 -5.4 22.2
08:50 1017 30.03 846 24.98 1 33.7 63 -5.3 22.4
08:55 1017 30.03 846 24.98 1 33.8 64 -5 22.9
09:00 1017 30.03 847 25.01 1 33.8 64 -5.1 22.8
09:05 1017 30.03 847 25.01 1 33.9 63 -5.3 22.5
09:10 1017 30.03 847 25.01 1 33.9 63 -5.2 22.6
09:15 1017 30.03 847 25.01 1.1 34 62 -5.3 22.5
09:20 1017 30.03 847 25.01 1.2 34.1 61 -5.5 22.1
09:25 1017 30.03 847 25.01 1.2 34.2 60 -5.6 21.9
09:30 1018 30.06 847 25.01 1.3 34.4 60 -5.7 21.8
09:35 1018 30.06 847 25.01 1.4 34.5 60 -5.5 22.1
09:40 1018 30.06 847 25.01 1.4 34.5 59 -5.7 21.8
09:45 1018 30.06 847 25.01 1.4 34.5 60 -5.6 21.9
09:50 1018 30.06 847 25.01 1.4 34.5 60 -5.6 21.9
09:55 1018 30.06 847 25.01 1.4 34.6 60 -5.5 22.2
10:00 1018 30.06 847 25.01 1.5 34.7 59 -5.7 21.8
10:05 1018 30.06 847 25.01 1.6 34.8 58 -5.7 21.7
10:10 1018 30.06 847 25.01 1.5 34.8 59 -5.5 22.1
10:15 1018 30.06 847 25.01 1.6 34.8 59 -5.6 21.9
10:20 1018 30.06 847 25.01 1.7 35 58 -5.7 21.7
10:25 1018 30.06 847 25.01 1.8 35.3 58 -5.6 22
10:30 1018 30.06 847 25.01 2 35.7 57 -5.6 22
10:35 1018 30.06 847 25.01 2.2 35.9 56 -5.6 21.9
10:40 1018 30.06 847 25.01 2.4 36.3 56 -5.4 22.2
10:45 1018 30.06 847 25.01 2.5 36.5 54 -5.9 21.3
10:50 1018 30.06 847 25.01 2.6 36.6 54 -5.8 21.5
10:55 1018 30.06 847 25.01 2.6 36.7 53 -6.1 21.1
11:00 1018 30.06 847 25.01 2.7 36.9 53 -5.9 21.5
11:05 1018 30.06 847 25.01 3 37.3 52 -6 21.2
11:10 1018 30.06 848 25.04 3 37.4 52 -6 21.2
11:15 1018 30.06 848 25.04 3.1 37.6 51 -6.2 20.9
11:20 1018 30.06 848 25.04 3.2 37.8 49 -6.6 20.1
11:25 1018 30.06 848 25.04 3.3 37.9 48 -6.6 20.1
11:30 1018 30.06 848 25.04 3.6 38.4 48 -6.3 20.6
11:35 1018 30.06 848 25.04 3.7 38.7 46 -6.8 19.7
11:40 1018 30.06 848 25.04 3.7 38.7 44 -7.3 18.9
11:45 1018 30.06 848 25.04 3.8 38.8 41 -8.3 17.1
11:50 1018 30.06 848 25.04 3.8 38.9 41 -8.1 17.5
11:55 1018 30.06 848 25.04 4 39.1 41 -8.2 17.2
12:00 1018 30.06 848 25.04 4 39.1 42 -7.8 17.9
12:05 1018 30.06 848 25.04 3.9 39.1 42 -7.7 18.1
12:10 1018 30.06 848 25.04 3.9 39 42 -8 17.6
12:15 1018 30.06 848 25.04 3.9 39 42 -7.9 17.8
12:20 1018 30.06 848 25.04 3.8 38.8 44 -7.4 18.6
12:25 1018 30.06 848 25.04 3.7 38.7 44 -7.5 18.5
12:30 1018 30.06 848 25.04 3.8 38.8 41 -8.1 17.4
12:35 1018 30.06 848 25.04 3.7 38.7 41 -8.3 17.1
12:40 1019 30.09 848 25.04 3.6 38.6 43 -7.7 18.1
12:45 1019 30.09 848 25.04 3.6 38.4 47 -6.7 19.9
12:50 1019 30.09 848 25.04 3.1 37.6 54 -5.2 22.7
12:55 1019 30.09 848 25.04 2.4 36.2 62 -4.2 24.5
13:00 1019 30.09 848 25.04 1.8 35.3 65 -4 24.9
13:05 1019 30.09 848 25.04 1.5 34.6 67 -4.1 24.7
13:10 1019 30.09 848 25.04 1.4 34.6 67 -4 24.8
13:15 1019 30.09 848 25.04 1.4 34.5 68 -3.9 24.9
13:20 1019 30.09 848 25.04 1.4 34.6 67 -4.1 24.7
13:25 1019 30.09 848 25.04 1.5 34.7 65 -4.3 24.2
13:30 1019 30.09 848 25.04 1.6 34.9 63 -4.6 23.7
13:35 1019 30.09 848 25.04 1.8 35.2 63 -4.5 23.9
13:40 1019 30.09 848 25.04 1.8 35.3 62 -4.6 23.7
13:45 1019 30.09 848 25.04 2.1 35.8 62 -4.5 23.9
13:50 1019 30.09 848 25.04 2.5 36.6 58 -4.8 23.4
13:55 1019 30.09 848 25.04 2.7 36.8 58 -4.7 23.5
14:00 1019 30.09 848 25.04 3 37.4 57 -4.8 23.4
14:05 1019 30.09 848 25.04 3.2 37.7 56 -4.8 23.3
14:10 1019 30.09 848 25.04 3.4 38.1 55 -4.9 23.2
14:15 1019 30.09 848 25.04 3.8 38.8 51 -5.5 22.1
14:20 1019 30.09 848 25.04 3.9 39 49 -5.7 21.7
14:25 1019 30.09 848 25.04 3.7 38.7 51 -5.6 22
14:30 1019 30.09 848 25.04 3.6 38.4 51 -5.7 21.7
14:35 1019 30.09 848 25.04 3.7 38.6 51 -5.6 22
14:40 1019 30.09 849 25.07 3.7 38.6 51 -5.7 21.8
14:45 1019 30.09 849 25.07 3.6 38.5 50 -5.8 21.5
14:50 1019 30.09 849 25.07 3.6 38.4 52 -5.4 22.3
14:55 1020 30.12 849 25.07 3.3 38 54 -5.1 22.8
15:00 1020 30.12 849 25.07 3.2 37.7 54 -5.2 22.6
15:05 1020 30.12 849 25.07 3.3 37.9 54 -5.2 22.6
15:10 1020 30.12 849 25.07 3.4 38.2 53 -5.1 22.7
15:15 1020 30.12 849 25.07 3.5 38.2 52 -5.6 22
15:20 1020 30.12 849 25.07 3.3 38 54 -5.1 22.9
15:25 1020 30.12 849 25.07 2.7 36.9 62 -3.9 24.9
15:30 1020 30.12 849 25.07 2.4 36.3 62 -4.3 24.3
15:35 1020 30.12 849 25.07 2.9 37.3 59 -4.3 24.3
15:40 1020 30.12 849 25.07 3.1 37.6 56 -4.7 23.5
15:45 1020 30.12 849 25.07 3.1 37.6 57 -4.5 23.8
15:50 1020 30.12 849 25.07 3 37.5 56 -4.8 23.4
15:55 1020 30.12 849 25.07 3 37.3 55 -5.3 22.5
16:00 1020 30.12 849 25.07 3 37.5 54 -5.3 22.5
16:05 1020 30.12 849 25.07 3.2 37.7 54 -5.4 22.3
16:10 1020 30.12 849 25.07 3.2 37.7 54 -5.2 22.6
16:15 1020 30.12 850 25.1 3 37.4 55 -5.2 22.6
16:20 1020 30.12 850 25.1 2.8 37.1 57 -4.9 23.2
16:25 1020 30.12 850 25.1 2.7 36.9 58 -4.6 23.6
16:30 1021 30.15 850 25.1 2.6 36.7 59 -4.7 23.6
16:35 1021 30.15 850 25.1 2.5 36.5 59 -4.8 23.3
16:40 1021 30.15 850 25.1 2.4 36.3 59 -4.7 23.5
16:45 1021 30.15 850 25.1 2.4 36.4 59 -4.7 23.6
16:50 1021 30.15 850 25.1 2.2 36 62 -4.3 24.3
16:55 1021 30.15 850 25.1 2.1 35.7 63 -4.3 24.2
17:00 1021 30.15 850 25.1 2.1 35.9 62 -4.3 24.2
17:05 1021 30.15 850 25.1 2.1 35.8 63 -4.2 24.5
17:10 1021 30.15 850 25.1 2 35.5 64 -4.1 24.6
17:15 1021 30.15 850 25.1 1.9 35.4 65 -4 24.8
17:20 1021 30.15 850 25.1 1.8 35.3 65 -4 24.8
17:25 1021 30.15 850 25.1 1.9 35.3 65 -3.9 24.9
17:30 1021 30.15 850 25.1 1.8 35.2 64 -4.3 24.3
17:35 1021 30.15 850 25.1 1.8 35.3 64 -4.2 24.4
17:40 1021 30.15 850 25.1 1.8 35.2 64 -4.3 24.3
17:45 1021 30.15 851 25.13 1.7 35.1 65 -4.2 24.4
17:50 1021 30.15 851 25.13 1.6 34.9 66 -4.2 24.5
17:55 1021 30.15 851 25.13 1.5 34.7 66 -4.2 24.5
18:00 1021 30.15 851 25.13 1.5 34.6 66 -4.2 24.4
18:05 1021 30.15 851 25.13 1.4 34.6 66 -4.2 24.5
18:10 1021 30.15 851 25.13 1.4 34.5 67 -4.1 24.6
18:15 1021 30.15 851 25.13 1.3 34.3 67 -4.1 24.7
18:20 1021 30.15 851 25.13 1.2 34.2 68 -4.1 24.6
18:25 1021 30.15 851 25.13 1.1 33.9 69 -4 24.9
18:30 1021 30.15 851 25.13 0.7 33.3 73 -3.6 25.5
18:35 1022 30.18 851 25.13 0.4 32.7 72 -4 24.8
18:40 1022 30.18 851 25.13 0.5 32.8 71 -4.2 24.4
18:45 1022 30.18 851 25.13 0.5 32.9 71 -4.2 24.4
18:50 1022 30.18 851 25.13 0.5 33 71 -4.1 24.5
18:55 1022 30.18 851 25.13 0.6 33.1 71 -4.1 24.7
19:00 1022 30.18 851 25.13 0.7 33.2 70 -4.1 24.6
19:05 1022 30.18 851 25.13 0.7 33.3 71 -4 24.9
19:10 1022 30.18 851 25.13 0.9 33.7 70 -4 24.9
19:15 1022 30.18 851 25.13 0.9 33.6 69 -4.1 24.6
19:20 1022 30.18 851 25.13 0.9 33.6 69 -4.1 24.6
19:25 1022 30.18 851 25.13 0.8 33.5 70 -4.1 24.6
19:30 1022 30.18 851 25.13 0.8 33.4 69 -4.3 24.2
19:35 1022 30.18 851 25.13 0.8 33.4 68 -4.4 24.1
19:40 1022 30.18 851 25.13 0.7 33.3 69 -4.4 24.1
19:45 1022 30.18 851 25.13 0.7 33.3 68 -4.4 24
19:50 1022 30.18 851 25.13 0.7 33.3 69 -4.4 24.2
19:55 1022 30.18 851 25.13 0.7 33.3 69 -4.3 24.3
20:00 1022 30.18 851 25.13 0.6 33.1 70 -4.2 24.4
20:05 1022 30.18 851 25.13 0.5 32.9 71 -4.2 24.4
20:10 1022 30.18 851 25.13 0.4 32.8 71 -4.3 24.3
20:15 1022 30.18 851 25.13 0.4 32.6 71 -4.2 24.4
20:20 1022 30.18 851 25.13 0.3 32.5 71 -4.5 24
20:25 1022 30.18 851 25.13 0.2 32.3 71 -4.6 23.8
20:30 1022 30.18 851 25.13 0.1 32.2 71 -4.5 23.9
20:35 1022 30.18 851 25.13 0.1 32.2 70 -4.7 23.5
20:40 1022 30.18 851 25.13 0.2 32.4 70 -4.7 23.6
20:45 1022 30.18 852 25.16 0.3 32.5 69 -4.7 23.6
20:50 1022 30.18 852 25.16 0.2 32.4 70 -4.5 23.8
20:55 1022 30.18 852 25.16 0.1 32.3 70 -4.7 23.5
21:00 1022 30.18 852 25.16 0.1 32.3 70 -4.6 23.7
21:05 1022 30.18 852 25.16 0.1 32.2 71 -4.5 23.9
21:10 1022 30.18 852 25.16 -0.1 31.8 72 -4.6 23.8
21:15 1022 30.18 852 25.16 -0.2 31.6 72 -4.7 23.6
21:20 1022 30.18 852 25.16 -0.3 31.5 72 -4.7 23.6
21:25 1023 30.21 852 25.16 -0.3 31.5 72 -4.6 23.6
21:30 1023 30.21 852 25.16 -0.3 31.5 73 -4.6 23.7
21:35 1023 30.21 852 25.16 -0.2 31.7 72 -4.7 23.6
21:40 1023 30.21 852 25.16 -0.1 31.8 72 -4.5 23.9
21:45 1023 30.21 852 25.16 -0.1 31.7 72 -4.6 23.7
21:50 1023 30.21 852 25.16 -0.1 31.8 72 -4.6 23.8
21:55 1023 30.21 852 25.16 -0.2 31.7 72 -4.6 23.7
22:00 1023 30.21 852 25.16 -0.2 31.7 72 -4.6 23.8
22:05 1023 30.21 852 25.16 -0.3 31.5 74 -4.4 24.1
22:10 1023 30.21 852 25.16 -0.3 31.4 72 -4.7 23.5
22:15 1023 30.21 852 25.16 -0.3 31.5 73 -4.5 23.8
22:20 1023 30.21 852 25.16 -0.4 31.3 74 -4.5 23.9
22:25 1023 30.21 852 25.16 -0.4 31.3 73 -4.7 23.5
22:30 1023 30.21 852 25.16 -0.5 31.2 74 -4.6 23.7
22:35 1023 30.21 852 25.16 -0.5 31.1 73 -4.7 23.5
22:40 1023 30.21 852 25.16 -0.5 31.2 73 -4.8 23.3
22:45 1023 30.21 852 25.16 -0.5 31.1 72 -4.9 23.2
22:50 1023 30.21 852 25.16 -0.5 31.2 72 -5 23.1
22:55 1023 30.21 852 25.16 -0.4 31.2 70 -5.2 22.7
23:00 1023 30.21 852 25.16 -0.3 31.5 69 -5.3 22.5
23:05 1023 30.21 852 25.16 -0.2 31.6 70 -5.1 22.8
23:10 1023 30.21 852 25.16 -0.1 31.9 67 -5.5 22.2
23:15 1023 30.21 852 25.16 0.2 32.4 65 -5.6 22
23:20 1023 30.21 852 25.16 0.2 32.4 66 -5.4 22.2
23:25 1023 30.21 852 25.16 0.2 32.3 66 -5.4 22.3
23:30 1023 30.21 852 25.16 0.2 32.4 65 -5.6 22
23:35 1023 30.21 852 25.16 0.3 32.6 64 -5.7 21.8
23:40 1023 30.21 852 25.16 0.4 32.8 64 -5.6 21.9
23:45 1023 30.21 852 25.16 0.5 32.9 64 -5.6 22
23:50 1023 30.21 852 25.16 0.5 32.9 63 -5.7 21.8
23:55 1023 30.21 852 25.16 0.6 33 64 -5.5 22.1
24:00 1023 30.21 852 25.16 0.6 33.1 63 -5.5 22.1